sensor_id;sensor_type;location;lat;lon;timestamp;P1;durP1;ratioP1;P2;durP2;ratioP2
64917;SDS011;52176;44.858;38.372;2022-10-16T02:23:28;13.05;;;5.40;;
64917;SDS011;52176;44.858;38.372;2022-10-16T02:26:07;15.00;;;5.05;;
64917;SDS011;52176;44.858;38.372;2022-10-16T02:28:46;9.85;;;5.07;;
64917;SDS011;52176;44.858;38.372;2022-10-16T02:31:16;9.48;;;4.65;;
64917;SDS011;52176;44.858;38.372;2022-10-16T02:33:48;10.15;;;4.80;;
64917;SDS011;52176;44.858;38.372;2022-10-16T02:36:16;7.75;;;4.30;;
64917;SDS011;52176;44.858;38.372;2022-10-16T02:38:42;7.90;;;4.07;;
64917;SDS011;52176;44.858;38.372;2022-10-16T02:41:09;9.60;;;4.38;;
64917;SDS011;52176;44.858;38.372;2022-10-16T02:43:36;6.75;;;4.13;;
64917;SDS011;52176;44.858;38.372;2022-10-16T02:46:02;6.88;;;4.22;;
64917;SDS011;52176;44.858;38.372;2022-10-16T02:48:28;11.02;;;4.28;;
64917;SDS011;52176;44.858;38.372;2022-10-16T02:50:54;11.25;;;4.20;;
64917;SDS011;52176;44.858;38.372;2022-10-16T02:53:20;9.75;;;4.00;;
64917;SDS011;52176;44.858;38.372;2022-10-16T02:55:46;8.05;;;4.03;;
64917;SDS011;52176;44.858;38.372;2022-10-16T02:58:12;7.68;;;4.22;;
64917;SDS011;52176;44.858;38.372;2022-10-16T03:00:38;7.30;;;4.43;;
64917;SDS011;52176;44.858;38.372;2022-10-16T03:03:04;11.82;;;4.35;;
64917;SDS011;52176;44.858;38.372;2022-10-16T03:05:30;11.60;;;4.40;;
64917;SDS011;52176;44.858;38.372;2022-10-16T03:07:56;6.45;;;4.18;;
64917;SDS011;52176;44.858;38.372;2022-10-16T03:10:25;6.57;;;4.05;;
64917;SDS011;52176;44.858;38.372;2022-10-16T03:12:51;9.88;;;4.57;;
64917;SDS011;52176;44.858;38.372;2022-10-16T03:15:17;8.70;;;4.00;;
64917;SDS011;52176;44.858;38.372;2022-10-16T03:17:43;10.60;;;4.38;;
64917;SDS011;52176;44.858;38.372;2022-10-16T03:20:09;6.80;;;4.13;;
64917;SDS011;52176;44.858;38.372;2022-10-16T03:22:35;6.32;;;4.13;;
64917;SDS011;52176;44.858;38.372;2022-10-16T03:25:01;9.80;;;3.95;;
64917;SDS011;52176;44.858;38.372;2022-10-16T03:27:27;8.48;;;4.50;;
64917;SDS011;52176;44.858;38.372;2022-10-16T03:29:53;6.93;;;4.10;;
64917;SDS011;52176;44.858;38.372;2022-10-16T03:32:19;10.15;;;4.40;;
64917;SDS011;52176;44.858;38.372;2022-10-16T03:34:46;16.25;;;4.75;;
64917;SDS011;52176;44.858;38.372;2022-10-16T03:37:12;8.02;;;4.30;;
64917;SDS011;52176;44.858;38.372;2022-10-16T03:39:38;11.68;;;4.70;;
64917;SDS011;52176;44.858;38.372;2022-10-16T03:42:05;13.10;;;4.65;;
64917;SDS011;52176;44.858;38.372;2022-10-16T03:51:48;14.60;;;4.30;;
64917;SDS011;52176;44.858;38.372;2022-10-16T03:54:14;6.95;;;4.05;;
64917;SDS011;52176;44.858;38.372;2022-10-16T03:56:40;8.02;;;5.25;;
64917;SDS011;52176;44.858;38.372;2022-10-16T03:59:06;13.30;;;4.20;;
64917;SDS011;52176;44.858;38.372;2022-10-16T04:01:32;12.48;;;5.05;;
64917;SDS011;52176;44.858;38.372;2022-10-16T04:03:59;11.20;;;5.50;;
64917;SDS011;52176;44.858;38.372;2022-10-16T04:06:25;13.68;;;5.43;;
64917;SDS011;52176;44.858;38.372;2022-10-16T04:08:51;10.30;;;5.32;;
64917;SDS011;52176;44.858;38.372;2022-10-16T04:11:17;19.92;;;5.50;;
64917;SDS011;52176;44.858;38.372;2022-10-16T04:13:43;15.45;;;4.93;;
64917;SDS011;52176;44.858;38.372;2022-10-16T04:16:09;10.00;;;4.50;;
64917;SDS011;52176;44.858;38.372;2022-10-16T04:18:35;13.00;;;4.90;;
64917;SDS011;52176;44.858;38.372;2022-10-16T04:21:02;7.88;;;4.70;;
64917;SDS011;52176;44.858;38.372;2022-10-16T04:23:29;13.07;;;4.22;;
64917;SDS011;52176;44.858;38.372;2022-10-16T04:25:55;11.13;;;5.03;;
64917;SDS011;52176;44.858;38.372;2022-10-16T04:28:21;10.63;;;4.90;;
64917;SDS011;52176;44.858;38.372;2022-10-16T04:30:47;8.00;;;4.82;;
64917;SDS011;52176;44.858;38.372;2022-10-16T04:33:13;12.13;;;4.97;;
64917;SDS011;52176;44.858;38.372;2022-10-16T04:35:39;13.77;;;4.65;;
64917;SDS011;52176;44.858;38.372;2022-10-16T04:38:05;16.20;;;4.20;;
64917;SDS011;52176;44.858;38.372;2022-10-16T04:40:31;10.23;;;4.18;;
64917;SDS011;52176;44.858;38.372;2022-10-16T04:43:04;7.32;;;4.20;;
64917;SDS011;52176;44.858;38.372;2022-10-16T04:45:31;6.30;;;3.53;;
64917;SDS011;52176;44.858;38.372;2022-10-16T04:47:57;13.57;;;3.92;;
64917;SDS011;52176;44.858;38.372;2022-10-16T04:50:24;14.50;;;4.00;;
64917;SDS011;52176;44.858;38.372;2022-10-16T04:53:03;11.20;;;3.72;;
64917;SDS011;52176;44.858;38.372;2022-10-16T04:55:30;16.55;;;4.43;;
64917;SDS011;52176;44.858;38.372;2022-10-16T04:57:56;12.52;;;4.25;;
64917;SDS011;52176;44.858;38.372;2022-10-16T05:00:22;13.82;;;4.05;;
64917;SDS011;52176;44.858;38.372;2022-10-16T05:02:49;13.38;;;4.18;;
64917;SDS011;52176;44.858;38.372;2022-10-16T05:05:15;13.38;;;4.53;;
64917;SDS011;52176;44.858;38.372;2022-10-16T05:07:44;6.88;;;3.92;;
64917;SDS011;52176;44.858;38.372;2022-10-16T05:10:14;15.20;;;4.15;;
64917;SDS011;52176;44.858;38.372;2022-10-16T05:12:40;28.05;;;4.50;;
64917;SDS011;52176;44.858;38.372;2022-10-16T05:15:07;14.05;;;4.18;;
